createdAt,value
2023-03-01T05:25:14.512Z,100.00
2023-03-01T05:27:43.969Z,100.00
2023-03-01T05:30:21.408Z,100.00
2023-03-01T05:33:04.606Z,100.00
2023-03-01T05:35:37.338Z,100.00
2023-03-01T05:38:15.396Z,100.00
2023-03-01T05:40:53.550Z,100.00
2023-03-01T05:43:23.736Z,100.00
2023-03-01T05:45:51.228Z,100.00
2023-03-01T05:48:21.243Z,100.00
2023-03-01T05:50:48.764Z,100.00
2023-03-01T05:53:20.076Z,100.00
2023-03-01T05:55:48.644Z,100.00
2023-03-01T05:58:19.134Z,100.00
2023-03-01T06:00:50.566Z,100.00
2023-03-01T06:03:19.039Z,100.00
2023-03-01T06:05:46.657Z,100.00
2023-03-01T06:08:15.049Z,100.00
2023-03-01T06:10:42.598Z,100.00
2023-03-01T06:13:09.854Z,100.00
2023-03-01T06:15:37.216Z,100.00
2023-03-01T06:18:04.660Z,100.00
2023-03-01T06:20:32.033Z,100.00
2023-03-01T06:22:59.566Z,100.00
2023-03-01T06:25:28.026Z,100.00
2023-03-01T06:27:56.362Z,100.00
2023-03-01T06:30:26.072Z,100.00
2023-03-01T06:32:54.517Z,100.00
2023-03-01T06:35:22.897Z,100.00
2023-03-01T06:37:51.038Z,100.00
2023-03-01T06:40:20.173Z,100.00
2023-03-01T06:42:50.990Z,100.00
2023-03-01T06:45:21.178Z,100.00
2023-03-01T06:47:51.196Z,100.00
2023-03-01T06:50:20.067Z,100.00
2023-03-01T06:52:51.938Z,100.00
2023-03-01T06:55:22.469Z,100.00
2023-03-01T06:57:51.533Z,100.00
2023-03-01T07:00:24.002Z,100.00
2023-03-01T07:02:53.025Z,100.00
2023-03-01T07:05:26.245Z,100.00
2023-03-01T07:08:03.367Z,100.00
2023-03-01T07:10:38.089Z,100.00
2023-03-01T07:13:09.081Z,100.00
2023-03-01T07:15:44.110Z,100.00
2023-03-01T07:18:17.248Z,100.00
2023-03-01T07:20:47.314Z,100.00
2023-03-01T07:23:16.411Z,100.00
2023-03-01T07:25:44.517Z,100.00
2023-03-01T07:28:15.887Z,100.00
2023-03-01T07:30:44.609Z,100.00
2023-03-01T07:33:18.980Z,100.00
2023-03-01T07:35:50.879Z,100.00
2023-03-01T07:38:24.900Z,100.00
2023-03-01T07:40:59.453Z,100.00
2023-03-01T07:43:34.073Z,100.00
2023-03-01T07:46:04.177Z,100.00
2023-03-01T07:48:33.851Z,100.00
2023-03-01T07:51:08.813Z,100.00
2023-03-01T07:53:43.736Z,100.00
2023-03-01T07:56:29.521Z,100.00
2023-03-01T07:59:02.100Z,100.00
2023-03-01T08:01:31.616Z,100.00
2023-03-01T08:04:30.295Z,100.00
2023-03-01T08:07:08.093Z,100.00
2023-03-01T08:09:39.948Z,100.00
2023-03-01T08:12:10.446Z,100.00
2023-03-01T08:14:42.899Z,100.00
2023-03-01T08:17:10.871Z,100.00
2023-03-01T08:19:39.761Z,100.00
2023-03-01T08:22:08.912Z,100.00
2023-03-01T08:24:37.030Z,100.00
2023-03-01T08:27:30.632Z,100.00
2023-03-01T08:30:03.254Z,100.00
2023-03-01T08:32:52.141Z,100.00
2023-03-01T08:35:22.326Z,100.00
2023-03-01T08:37:57.574Z,100.00
2023-03-01T08:40:41.485Z,100.00
2023-03-01T08:43:15.973Z,100.00
2023-03-01T08:45:58.121Z,100.00
2023-03-01T08:48:34.547Z,100.00
2023-03-01T08:51:14.354Z,100.00
2023-03-01T08:53:47.879Z,100.00
2023-03-01T08:56:20.477Z,100.00
2023-03-01T08:58:53.159Z,100.00
2023-03-01T09:01:21.251Z,100.00
2023-03-01T09:03:49.251Z,100.00
2023-03-01T09:06:18.043Z,100.00
2023-03-01T09:08:48.299Z,100.00
2023-03-01T09:11:19.742Z,100.00
2023-03-01T09:13:49.792Z,100.00
2023-03-01T09:16:20.794Z,100.00
2023-03-01T09:18:53.964Z,100.00
2023-03-01T09:21:39.532Z,100.00
2023-03-01T09:24:16.328Z,100.00
2023-03-01T09:26:49.946Z,100.00
2023-03-01T09:29:19.682Z,100.00
2023-03-01T09:31:51.519Z,100.00
2023-03-01T09:34:25.110Z,100.00
2023-03-01T09:36:53.890Z,100.00
2023-03-01T09:39:22.294Z,100.00
2023-03-01T09:42:06.657Z,100.00
2023-03-01T09:44:57.400Z,100.00
2023-03-01T09:47:47.010Z,100.00
2023-03-01T09:50:19.677Z,100.00
2023-03-01T09:53:15.763Z,100.00
2023-03-01T09:56:03.941Z,100.00
2023-03-01T09:58:55.418Z,100.00
2023-03-01T10:01:36.127Z,100.00
2023-03-01T10:04:41.515Z,100.00
2023-03-01T10:07:58.736Z,100.00
2023-03-01T10:11:02.466Z,100.00
2023-03-01T10:13:42.968Z,100.00
2023-03-01T10:16:26.285Z,100.00
2023-03-01T10:19:01.070Z,100.00
2023-03-01T10:21:35.735Z,100.00
2023-03-01T10:24:17.075Z,100.00
2023-03-01T10:26:56.264Z,100.00
2023-03-01T10:29:33.383Z,100.00
2023-03-01T10:32:08.749Z,100.00
2023-03-01T10:34:37.719Z,100.00
2023-03-01T10:37:32.433Z,100.00
2023-03-01T10:40:07.390Z,100.00
2023-03-01T10:42:51.368Z,100.00
2023-03-01T10:45:26.973Z,100.00
2023-03-01T10:48:26.942Z,100.00
2023-03-01T10:51:31.116Z,100.00
2023-03-01T10:54:01.683Z,100.00
2023-03-01T10:56:36.308Z,100.00
2023-03-01T10:59:09.353Z,92.13
2023-03-01T11:01:46.862Z,95.71
2023-03-01T11:04:34.378Z,100.00
2023-03-01T11:07:17.801Z,93.02
2023-03-01T11:09:50.442Z,98.55
2023-03-01T11:12:32.253Z,100.00
2023-03-01T11:15:49.030Z,100.00
2023-03-01T11:18:57.000Z,100.00
2023-03-01T11:21:40.194Z,100.00
2023-03-01T11:24:21.593Z,98.43
2023-03-01T11:26:57.820Z,100.00
2023-03-01T11:29:47.803Z,94.57
2023-03-01T11:32:23.325Z,100.00
2023-03-01T11:35:30.500Z,100.00
2023-03-01T11:38:19.463Z,92.78
2023-03-01T11:41:20.251Z,100.00
2023-03-01T11:44:00.726Z,96.50
2023-03-01T11:47:00.761Z,94.81
2023-03-01T11:49:57.087Z,97.75
2023-03-01T11:52:52.206Z,98.23
2023-03-01T11:55:49.844Z,94.64
2023-03-01T11:59:02.819Z,99.89
2023-03-01T12:02:10.639Z,100.00
2023-03-01T12:05:10.903Z,91.82
2023-03-01T12:08:12.305Z,92.31
2023-03-01T12:11:24.669Z,91.35
2023-03-01T12:14:31.052Z,100.00
2023-03-01T12:17:24.601Z,86.13
2023-03-01T12:20:21.188Z,95.88
2023-03-01T12:23:27.149Z,100.00
2023-03-01T12:26:27.790Z,97.20
2023-03-01T12:29:18.641Z,94.79
2023-03-01T12:31:54.682Z,95.08
2023-03-01T12:34:44.958Z,100.00
2023-03-01T12:37:47.852Z,99.22
2023-03-01T12:44:38.660Z,94.42
2023-03-01T12:51:00.110Z,93.97
2023-03-01T12:53:44.874Z,98.39
2023-03-01T12:56:46.203Z,100.00
2023-03-01T12:59:43.212Z,96.84
2023-03-01T13:02:44.134Z,98.36
2023-03-01T13:05:32.097Z,87.34
2023-03-01T13:29:04.252Z,88.82
2023-03-01T13:31:33.502Z,88.12
2023-03-01T13:34:13.964Z,95.03
2023-03-01T13:36:48.714Z,92.04
2023-03-01T13:39:35.695Z,94.98
2023-03-01T13:42:04.686Z,100.00
2023-03-01T13:44:42.518Z,94.75
2023-03-01T13:47:19.385Z,86.93
2023-03-01T13:49:57.698Z,94.50
2023-03-01T13:52:56.394Z,96.42
2023-03-01T13:55:47.117Z,95.63
2023-03-01T13:58:23.336Z,84.63
2023-03-01T14:01:07.576Z,85.68
2023-03-01T14:03:45.673Z,85.54
2023-03-01T14:06:21.423Z,91.20
2023-03-01T14:08:54.785Z,91.94
2023-03-01T14:12:04.262Z,93.96
2023-03-01T14:14:44.872Z,88.36
2023-03-01T14:17:40.115Z,93.28
2023-03-01T14:20:24.569Z,89.95
2023-03-01T14:22:56.718Z,91.86
2023-03-01T14:25:35.892Z,86.35
2023-03-01T14:28:32.346Z,85.26
2023-03-01T14:31:05.599Z,82.97
2023-03-01T14:33:38.269Z,86.06
2023-03-01T14:36:31.652Z,88.48
2023-03-01T14:39:06.234Z,86.82
2023-03-01T14:41:37.395Z,87.88
2023-03-01T14:44:14.825Z,91.63
2023-03-01T14:46:47.060Z,79.59
2023-03-01T14:49:21.889Z,80.14
2023-03-01T14:52:06.561Z,86.05
2023-03-01T14:54:41.745Z,82.09
2023-03-01T14:57:45.952Z,85.86
2023-03-01T15:00:27.027Z,86.52
2023-03-01T15:03:04.541Z,89.28
2023-03-01T15:05:37.793Z,91.26
2023-03-01T15:08:06.999Z,84.38
2023-03-01T15:10:39.097Z,84.11
2023-03-01T15:13:15.034Z,93.67
2023-03-01T15:15:47.091Z,87.04
2023-03-01T15:18:30.415Z,89.41
2023-03-01T15:21:18.577Z,84.07
2023-03-01T15:23:54.325Z,86.93
2023-03-01T15:26:32.584Z,84.34
2023-03-01T15:29:02.253Z,91.98
2023-03-01T15:31:36.769Z,89.31
2023-03-01T15:34:28.091Z,83.97
2023-03-01T15:37:30.947Z,86.08
2023-03-01T15:39:59.938Z,79.47
2023-03-01T15:42:34.393Z,84.76
2023-03-01T15:45:35.591Z,88.03
2023-03-01T15:48:22.212Z,80.40
2023-03-01T15:51:02.970Z,83.60
2023-03-01T15:53:43.877Z,85.65
2023-03-01T15:56:21.383Z,87.71
2023-03-01T15:58:54.562Z,87.59
2023-03-01T16:01:31.286Z,84.14
2023-03-01T16:03:59.572Z,88.49
2023-03-01T16:06:26.996Z,83.63
2023-03-01T16:08:55.985Z,84.93
2023-03-01T16:11:23.250Z,86.20
2023-03-01T16:13:51.090Z,87.44
2023-03-01T16:16:18.692Z,87.83
2023-03-01T16:18:48.769Z,85.92
2023-03-01T16:21:21.496Z,86.07
2023-03-01T16:23:50.134Z,91.42
2023-03-01T16:26:19.670Z,91.70
2023-03-01T16:28:50.736Z,90.62
2023-03-01T16:31:21.122Z,87.14
2023-03-01T16:33:51.209Z,85.61
2023-03-01T16:36:21.331Z,90.39
2023-03-01T16:38:52.782Z,89.15
2023-03-01T16:41:23.814Z,90.97
2023-03-01T16:43:51.871Z,94.25
2023-03-01T16:46:28.023Z,91.29
2023-03-01T16:48:57.870Z,98.89
2023-03-01T16:51:25.581Z,96.94
2023-03-01T16:53:56.673Z,100.00
2023-03-01T16:56:30.168Z,96.76
2023-03-01T16:58:57.387Z,98.42
2023-03-01T17:01:26.893Z,96.67
2023-03-01T17:03:54.211Z,96.58
2023-03-01T17:06:23.380Z,95.44
2023-03-01T17:08:50.817Z,97.96
2023-03-01T17:11:20.560Z,97.51
2023-03-01T17:13:50.227Z,100.00
2023-03-01T17:16:20.455Z,99.32
2023-03-01T17:18:48.471Z,100.00
2023-03-01T17:21:16.312Z,100.00
2023-03-01T17:23:45.894Z,100.00
2023-03-01T17:26:14.004Z,100.00
2023-03-01T17:28:41.369Z,100.00
2023-03-01T17:31:08.740Z,100.00
2023-03-01T17:33:57.454Z,100.00
2023-03-01T17:36:47.750Z,100.00
2023-03-01T17:39:15.513Z,100.00
2023-03-01T17:41:44.507Z,100.00
2023-03-01T17:44:16.490Z,100.00
2023-03-01T17:46:46.826Z,100.00
2023-03-01T17:49:21.770Z,100.00
2023-03-01T17:51:50.305Z,100.00
2023-03-01T17:54:18.066Z,100.00
2023-03-01T17:56:47.178Z,100.00
2023-03-01T17:59:14.834Z,100.00
2023-03-01T18:01:44.462Z,100.00
2023-03-01T18:04:12.202Z,100.00
2023-03-01T18:06:41.810Z,100.00
2023-03-01T18:09:09.780Z,100.00
2023-03-01T18:11:37.288Z,100.00
2023-03-01T18:14:05.101Z,100.00
2023-03-01T18:16:34.769Z,100.00
2023-03-01T18:19:04.173Z,100.00
2023-03-01T18:21:34.404Z,100.00
2023-03-01T18:24:07.599Z,100.00
2023-03-01T18:26:35.815Z,100.00
2023-03-01T18:29:05.249Z,100.00
2023-03-01T18:31:33.696Z,100.00
2023-03-01T18:34:02.342Z,100.00
2023-03-01T18:36:41.623Z,100.00
2023-03-01T18:39:12.344Z,100.00
2023-03-01T18:41:39.707Z,100.00
2023-03-01T18:44:14.610Z,100.00
2023-03-01T18:46:47.627Z,100.00
2023-03-01T18:52:23.980Z,100.00
2023-03-01T18:55:03.142Z,100.00
2023-03-01T18:57:35.148Z,100.00
2023-03-01T19:00:08.185Z,100.00
2023-03-01T19:02:38.507Z,100.00
2023-03-01T19:05:09.848Z,100.00
2023-03-01T19:08:08.870Z,100.00
2023-03-01T19:10:36.977Z,100.00
2023-03-01T19:13:13.423Z,100.00
2023-03-01T19:15:46.170Z,100.00
2023-03-01T19:18:29.382Z,100.00
2023-03-01T19:21:26.072Z,100.00
2023-03-01T19:23:55.493Z,100.00
2023-03-01T19:26:48.981Z,100.00
2023-03-01T19:29:21.625Z,100.00
2023-03-01T19:31:57.851Z,100.00
2023-03-01T19:37:59.046Z,100.00
2023-03-01T19:40:28.004Z,100.00
2023-03-01T19:42:58.712Z,100.00
2023-03-01T19:48:40.605Z,100.00
2023-03-01T19:51:13.167Z,100.00
2023-03-01T19:53:49.405Z,100.00
2023-03-01T19:56:16.986Z,100.00
2023-03-01T19:58:52.393Z,100.00
2023-03-01T20:01:22.024Z,100.00
2023-03-01T20:03:49.510Z,100.00
2023-03-01T20:06:21.305Z,100.00
2023-03-01T20:09:12.143Z,100.00
2023-03-01T20:14:39.821Z,100.00
2023-03-01T20:17:13.477Z,100.00
2023-03-01T20:19:40.872Z,100.00
2023-03-01T20:22:08.262Z,100.00
2023-03-01T20:24:41.443Z,100.00
2023-03-01T20:27:08.889Z,100.00
2023-03-01T20:29:36.435Z,100.00
2023-03-01T20:32:04.178Z,100.00
2023-03-01T20:34:31.608Z,100.00
2023-03-01T20:36:59.149Z,100.00
2023-03-01T20:39:26.705Z,100.00
2023-03-01T20:41:55.388Z,100.00
2023-03-01T20:44:23.032Z,100.00
2023-03-01T20:46:51.037Z,100.00
2023-03-01T20:49:19.895Z,100.00
2023-03-01T20:51:48.561Z,100.00
2023-03-01T20:54:16.967Z,100.00
2023-03-01T20:56:45.038Z,100.00
2023-03-01T20:59:14.224Z,100.00
2023-03-01T21:01:47.065Z,100.00
2023-03-01T21:04:14.750Z,100.00
2023-03-01T21:06:43.413Z,100.00
2023-03-01T21:09:11.719Z,100.00
2023-03-01T21:11:39.632Z,100.00
2023-03-01T21:14:07.048Z,100.00
2023-03-01T21:16:35.822Z,100.00
2023-03-01T21:19:04.938Z,100.00
2023-03-01T21:21:36.386Z,100.00
2023-03-01T21:24:04.383Z,100.00
2023-03-01T21:26:31.893Z,100.00
2023-03-01T21:29:04.114Z,100.00
2023-03-01T21:31:35.284Z,100.00
2023-03-01T21:34:06.102Z,100.00
2023-03-01T21:36:34.818Z,100.00
2023-03-01T21:39:02.769Z,100.00
2023-03-01T21:41:33.593Z,100.00
2023-03-01T21:44:03.335Z,100.00
2023-03-01T21:46:33.781Z,100.00
2023-03-01T21:49:03.321Z,100.00
2023-03-01T21:51:32.194Z,100.00
2023-03-01T21:54:01.616Z,100.00
2023-03-01T21:56:32.131Z,100.00
2023-03-01T21:58:59.874Z,100.00
2023-03-01T22:01:28.600Z,100.00
2023-03-01T22:04:01.159Z,100.00
2023-03-01T22:06:31.705Z,100.00
2023-03-01T22:09:07.275Z,100.00
2023-03-01T22:11:43.094Z,100.00
2023-03-01T22:14:14.086Z,100.00
2023-03-01T22:16:43.187Z,100.00
2023-03-01T22:19:11.740Z,100.00
2023-03-01T22:21:40.878Z,100.00
2023-03-01T22:24:09.232Z,100.00
2023-03-01T22:26:40.095Z,100.00
2023-03-01T22:29:11.176Z,100.00
2023-03-01T22:31:38.963Z,100.00
2023-03-01T22:34:07.056Z,100.00
2023-03-01T22:36:34.649Z,100.00
2023-03-01T22:39:02.451Z,100.00
2023-03-01T22:41:33.167Z,100.00
2023-03-01T22:44:00.537Z,100.00
2023-03-01T22:46:28.805Z,100.00
2023-03-01T22:48:56.968Z,100.00
2023-03-01T22:51:27.919Z,100.00
2023-03-01T22:53:56.144Z,100.00
2023-03-01T22:56:26.495Z,100.00
2023-03-01T22:58:54.210Z,100.00
2023-03-01T23:01:23.613Z,100.00
2023-03-01T23:03:52.139Z,100.00
2023-03-01T23:06:21.758Z,100.00
2023-03-01T23:09:00.484Z,100.00
2023-03-01T23:11:28.888Z,100.00
2023-03-01T23:13:56.664Z,100.00
2023-03-01T23:16:26.719Z,100.00
2023-03-01T23:18:57.272Z,100.00
2023-03-01T23:21:24.900Z,100.00
2023-03-01T23:23:52.265Z,100.00
2023-03-01T23:26:22.524Z,100.00
2023-03-01T23:28:51.081Z,100.00
2023-03-01T23:31:19.175Z,100.00
2023-03-01T23:33:47.515Z,100.00
2023-03-01T23:36:19.593Z,100.00
2023-03-01T23:38:48.493Z,100.00
2023-03-01T23:41:19.156Z,100.00
2023-03-01T23:43:52.080Z,100.00
2023-03-01T23:46:21.136Z,100.00
2023-03-01T23:48:48.708Z,100.00
2023-03-01T23:51:18.431Z,100.00
2023-03-01T23:53:55.117Z,100.00
2023-03-01T23:56:26.448Z,100.00
2023-03-01T23:58:55.805Z,100.00
